Map

Track Data

SID SEASON NUMBER BASIN SUBBASIN NAME ISO_TIME NATURE LAT LON WMO_WIND WMO_PRES WMO_AGENCY TRACK_TYPE DIST2LAND LANDFALL IFLAG USA_AGENCY USA_ATCF_ID USA_LAT USA_LON USA_RECORD USA_STATUS USA_WIND USA_PRES USA_SSHS USA_R34_NE USA_R34_SE USA_R34_SW USA_R34_NW USA_R50_NE USA_R50_SE USA_R50_SW USA_R50_NW USA_R64_NE USA_R64_SE USA_R64_SW USA_R64_NW USA_POCI USA_ROCI USA_RMW USA_EYE TOKYO_LAT TOKYO_LON TOKYO_GRADE TOKYO_WIND TOKYO_PRES TOKYO_R50_DIR TOKYO_R50_LONG TOKYO_R50_SHORT TOKYO_R30_DIR TOKYO_R30_LONG TOKYO_R30_SHORT TOKYO_LAND CMA_LAT CMA_LON CMA_CAT CMA_WIND CMA_PRES HKO_LAT HKO_LON HKO_CAT HKO_WIND HKO_PRES NEWDELHI_LAT NEWDELHI_LON NEWDELHI_GRADE NEWDELHI_WIND NEWDELHI_PRES NEWDELHI_CI NEWDELHI_DP NEWDELHI_POCI REUNION_LAT REUNION_LON REUNION_TYPE REUNION_WIND REUNION_PRES REUNION_TNUM REUNION_CI REUNION_RMW REUNION_R34_NE REUNION_R34_SE REUNION_R34_SW REUNION_R34_NW REUNION_R50_NE REUNION_R50_SE REUNION_R50_SW REUNION_R50_NW REUNION_R64_NE REUNION_R64_SE REUNION_R64_SW REUNION_R64_NW BOM_LAT BOM_LON BOM_TYPE BOM_WIND BOM_PRES BOM_TNUM BOM_CI BOM_RMW BOM_R34_NE BOM_R34_SE BOM_R34_SW BOM_R34_NW BOM_R50_NE BOM_R50_SE BOM_R50_SW BOM_R50_NW BOM_R64_NE BOM_R64_SE BOM_R64_SW BOM_R64_NW BOM_ROCI BOM_POCI BOM_EYE BOM_POS_METHOD BOM_PRES_METHOD NADI_LAT NADI_LON NADI_CAT NADI_WIND NADI_PRES WELLINGTON_LAT WELLINGTON_LON WELLINGTON_WIND WELLINGTON_PRES DS824_LAT DS824_LON DS824_STAGE DS824_WIND DS824_PRES TD9636_LAT TD9636_LON TD9636_STAGE TD9636_WIND TD9636_PRES TD9635_LAT TD9635_LON TD9635_WIND TD9635_PRES TD9635_ROCI NEUMANN_LAT NEUMANN_LON NEUMANN_CLASS NEUMANN_WIND NEUMANN_PRES MLC_LAT MLC_LON MLC_CLASS MLC_WIND MLC_PRES USA_GUST BOM_GUST BOM_GUST_PER REUNION_GUST REUNION_GUST_PER USA_SEAHGT USA_SEARAD_NE USA_SEARAD_SE USA_SEARAD_SW USA_SEARAD_NW STORM_SPEED STORM_DIR
1957082S15118 1957 25 SI WA NOT_NAMED 1957-03-22 23:00:00 NR -14.8000 117.500 main 574 569 __________O___ -1 -14.8000 117.500 1 5 0
1957082S15118 1957 25 SI WA NOT_NAMED 1957-03-23 00:00:00 TS -14.8834 117.478 main 569 568 O________OP___ jtwc_sh SH281957 -14.9000 117.500 -1 -14.9000 117.500 TC -14.8667 117.456 1 5 203
1957082S15118 1957 25 SI WA NOT_NAMED 1957-03-23 03:00:00 TS -15.0858 117.373 main 568 568 P________PP___ SH281957 -15.1000 117.405 -1 -15.1000 117.405 TC -15.0669 117.330 1 5 207
1957082S15118 1957 25 SI WA NOT_NAMED 1957-03-23 06:00:00 TS -15.2868 117.267 main 568 552 O________OP___ jtwc_sh SH281957 -15.3000 117.300 -1 -15.3000 117.300 TC -15.2670 117.218 1 5 206
1957082S15118 1957 25 SI WA NOT_NAMED 1957-03-23 09:00:00 TS -15.4890 117.168 main 552 546 P________PP___ SH281957 -15.5000 117.185 -1 -15.5000 117.185 TC -15.4668 117.135 1 4 204
1957082S15118 1957 25 SI WA NOT_NAMED 1957-03-23 11:00:00 TS -15.6222 117.115 main 546 535 P________PO___ SH281957 -15.6333 117.122 -1 -15.6333 117.122 TC -15.6000 117.100 1 4 200
1957082S15118 1957 25 SI WA NOT_NAMED 1957-03-23 12:00:00 TS -15.6888 117.097 main 535 514 O________OP___ jtwc_sh SH281957 -15.7000 117.100 -1 -15.7000 117.100 TC -15.6665 117.090 1 4 0
1957082S15118 1957 25 SI WA NOT_NAMED 1957-03-23 15:00:00 TS -15.8887 117.101 main 514 492 P________PP___ SH281957 -15.9000 117.115 -1 -15.9000 117.115 TC -15.8662 117.073 1 4 0
1957082S15118 1957 25 SI WA NOT_NAMED 1957-03-23 18:00:00 TS -16.0887 117.079 main 492 473 O________OP___ jtwc_sh SH281957 -16.1000 117.100 -1 -16.1000 117.100 TC -16.0660 117.037 1 4 199
1957082S15118 1957 25 SI WA NOT_NAMED 1957-03-23 21:00:00 TS -16.2887 116.956 main 473 465 P________PP___ SH281957 -16.2999 116.967 -1 -16.2999 116.967 TC -16.2662 116.933 1 5 218
1957082S15118 1957 25 SI WA NOT_NAMED 1957-03-23 23:00:00 TS -16.4222 116.804 main 468 457 P________PO___ SH281957 -16.4332 116.806 -1 -16.4332 116.806 TC -16.4000 116.800 1 6 230
1957082S15118 1957 25 SI WA NOT_NAMED 1957-03-24 00:00:00 TS -16.4918 116.700 main 458 437 O________OP___ jtwc_sh SH281957 -16.5000 116.700 -1 -16.5000 116.700 TC -16.4754 116.701 1 8 240
1957082S15118 1957 25 SI WA NOT_NAMED 1957-03-24 03:00:00 TS -16.7018 116.298 main 438 420 P________PP___ SH281957 -16.7001 116.288 -1 -16.7001 116.288 TC -16.7052 116.319 1 9 244
1957082S15118 1957 25 SI WA NOT_NAMED 1957-03-24 06:00:00 TS -16.9077 115.817 main 424 411 O________OP___ jtwc_sh SH281957 -16.9000 115.800 -1 -16.9000 115.800 TC -16.9230 115.850 1 10 245
1957082S15118 1957 25 SI WA NOT_NAMED 1957-03-24 09:00:00 TS -17.1172 115.347 main 418 411 P________PP___ SH281957 -17.1224 115.350 -1 -17.1224 115.350 TC -17.1069 115.340 1 10 246
1957082S15118 1957 25 SI WA NOT_NAMED 1957-03-24 11:00:00 TS -17.2336 115.033 main 420 410 P________PO___ SH281957 -17.2504 115.050 -1 -17.2504 115.050 TC -17.2000 115.000 7 9 249
1957082S15118 1957 25 SI WA NOT_NAMED 1957-03-24 12:00:00 TS -17.2824 114.889 main 414 414 O________OP___ jtwc_sh SH281957 -17.3000 114.900 -1 -17.3000 114.900 TC -17.2473 114.866 7 8 255
1957082S15118 1957 25 SI WA NOT_NAMED 1957-03-24 15:00:00 TS -17.3824 114.462 main 426 426 P________PP___ SH281957 -17.3948 114.457 -1 -17.3948 114.457 TC -17.3576 114.471 7 8 262
1957082S15118 1957 25 SI WA NOT_NAMED 1957-03-24 18:00:00 TS -17.4020 114.018 main 454 454 O________OP___ jtwc_sh SH281957 -17.4000 114.000 -1 -17.4000 114.000 TC -17.4061 114.055 7 9 272
1957082S15118 1957 25 SI WA NOT_NAMED 1957-03-24 21:00:00 TS -17.3596 113.555 main 477 477 P________PP___ SH281957 -17.3521 113.545 -1 -17.3521 113.545 TC -17.3746 113.575 7 10 279
1957082S15118 1957 25 SI WA NOT_NAMED 1957-03-24 23:00:00 TS -17.2759 113.199 main 510 510 P________PO___ SH281957 -17.2638 113.198 -1 -17.2638 113.198 TC -17.3000 113.200 2 11 286
1957082S15118 1957 25 SI WA NOT_NAMED 1957-03-25 00:00:00 TS -17.2109 112.995 main 532 532 O________OP___ jtwc_sh SH281957 -17.2000 113.000 -1 -17.2000 113.000 TC -17.2327 112.984 2 13 290
1957082S15118 1957 25 SI WA NOT_NAMED 1957-03-25 01:00:00 TS -17.1305 112.774 main 551 551 P________PP___ SH281957 -17.1202 112.784 -1 -17.1202 112.784 TC -17.1510 112.756 2 15 292
1957082S15118 1957 25 SI WA NOT_NAMED 1957-03-25 03:00:00 TS -16.9331 112.290 main 587 587 P________PP___ SH281957 -16.9224 112.302 -1 -16.9224 112.302 TC -16.9545 112.266 2 16 293
1957082S15118 1957 25 SI WA NOT_NAMED 1957-03-25 06:00:00 TS -16.6050 111.491 main 648 648 O________OP___ jtwc_sh SH281957 -16.6000 111.500 -1 -16.6000 111.500 TC -16.6149 111.474 2 17 292
1957082S15118 1957 25 SI WA NOT_NAMED 1957-03-25 09:00:00 TS -16.3076 110.650 main 721 721 P________PP___ SH281957 -16.3200 110.650 -1 -16.3200 110.650 TC -16.2829 110.649 2 17 289
1957082S15118 1957 25 SI WA NOT_NAMED 1957-03-25 11:00:00 TS -16.1424 110.085 main 767 767 P________PO___ SH281957 -16.1636 110.077 -1 -16.1636 110.077 TC -16.1000 110.100 4 17 286
1957082S15118 1957 25 SI WA NOT_NAMED 1957-03-25 12:00:00 TS -16.0796 109.806 main 784 784 O________OP___ jtwc_sh SH281957 -16.1000 109.800 -1 -16.1000 109.800 TC -16.0389 109.818 4 16 281
1957082S15118 1957 25 SI WA NOT_NAMED 1957-03-25 15:00:00 TS -15.9473 109.010 main 852 852 P________PP___ SH281957 -15.9696 109.035 -1 -15.9696 109.035 TC -15.9028 108.959 4 15 279
1957082S15118 1957 25 SI WA NOT_NAMED 1957-03-25 16:00:00 TS -15.9186 108.752 main 865 865 P________PP___ SH281957 -15.9421 108.789 -1 -15.9421 108.789 TC -15.8715 108.677 4 15 276
1957082S15118 1957 25 SI WA NOT_NAMED 1957-03-25 18:00:00 TS -15.8757 108.245 main 904 897 O________OP___ jtwc_sh SH281957 -15.9000 108.300 -1 -15.9000 108.300 TC -15.8270 108.134 4 15 274
1957082S15118 1957 25 SI WA NOT_NAMED 1957-03-25 21:00:00 TS -15.8230 107.461 main 901 901 P________PP___ SH281957 -15.8352 107.490 -1 -15.8352 107.490 TC -15.7986 107.403 4 14 273
1957082S15118 1957 25 SI WA NOT_NAMED 1957-03-25 23:00:00 TS -15.8056 107.003 main 908 908 P________PO___ SH281957 -15.8085 107.004 -1 -15.8085 107.004 TC -15.8000 107.000 1 12 272
1957082S15118 1957 25 SI WA NOT_NAMED 1957-03-26 00:00:00 TS -15.7977 106.813 main 912 912 O________OP___ jtwc_sh SH281957 -15.8000 106.800 -1 -15.8000 106.800 TC -15.7930 106.840 1 10 273
1957082S15118 1957 25 SI WA NOT_NAMED 1957-03-26 01:00:00 TS -15.7876 106.652 main 914 914 P________PP___ SH281957 -15.7862 106.627 -1 -15.7862 106.627 TC -15.7904 106.700 1 8 273
1957082S15118 1957 25 SI WA NOT_NAMED 1957-03-26 03:00:00 TS -15.7791 106.397 main 919 919 P________PP___ SH281957 -15.7696 106.360 -1 -15.7696 106.360 TC -15.7981 106.470 1 6 267
1957082S15118 1957 25 SI WA NOT_NAMED 1957-03-26 06:00:00 TS -15.8140 106.139 main 925 925 O________OP___ jtwc_sh SH281957 -15.8000 106.100 -1 -15.8000 106.100 TC -15.8420 106.218 1 4 250
1957082S15118 1957 25 SI WA NOT_NAMED 1957-03-26 09:00:00 TS -15.9263 105.965 main 938 938 P________PP___ SH281957 -15.9274 105.935 -1 -15.9274 105.935 TC -15.9242 106.025 1 4 231
1957082S15118 1957 25 SI WA NOT_NAMED 1957-03-26 11:00:00 TS -16.0280 105.867 main 952 952 P________PO___ SH281957 -16.0421 105.851 -1 -16.0421 105.851 TC -16.0000 105.900 1 4 226
1957082S15118 1957 25 SI WA NOT_NAMED 1957-03-26 12:00:00 TS -16.0805 105.802 main 965 965 O________OP___ jtwc_sh SH281957 -16.1000 105.800 -1 -16.1000 105.800 TC -16.0416 105.807 1 5 237
1957082S15118 1957 25 SI WA NOT_NAMED 1957-03-26 15:00:00 TS -16.2263 105.554 main 981 981 P________PP___ SH281957 -16.2425 105.565 -1 -16.2425 105.565 TC -16.1939 105.532 1 6 238
1957082S15118 1957 25 SI WA NOT_NAMED 1957-03-26 18:00:00 TS -16.3918 105.290 main 1011 1011 O________OP___ jtwc_sh SH281957 -16.4000 105.300 -1 -16.4000 105.300 TC -16.3753 105.271 1 6 234
1957082S15118 1957 25 SI WA NOT_NAMED 1957-03-26 21:00:00 TS -16.5901 105.035 main 1041 1041 P________PP___ SH281957 -16.6000 105.035 -1 -16.6000 105.035 TC -16.5703 105.036 1 6 230
1957082S15118 1957 25 SI WA NOT_NAMED 1957-03-26 23:00:00 TS -16.7243 104.881 main 1054 1054 P________PO___ SH281957 -16.7364 104.872 -1 -16.7364 104.872 TC -16.7000 104.900 1 6 227
1957082S15118 1957 25 SI WA NOT_NAMED 1957-03-27 00:00:00 TS -16.7849 104.812 main 1066 1066 O________OP___ jtwc_sh SH281957 -16.8000 104.800 -1 -16.8000 104.800 TC -16.7546 104.837 1 5 227
1957082S15118 1957 25 SI WA NOT_NAMED 1957-03-27 01:00:00 TS -16.8383 104.748 main 1068 1068 P________PP___ SH281957 -16.8531 104.733 -1 -16.8531 104.733 TC -16.8087 104.778 1 5 227
1957082S15118 1957 25 SI WA NOT_NAMED 1957-03-27 03:00:00 TS -16.9389 104.637 main 1081 1081 P________PP___ SH281957 -16.9500 104.620 -1 -16.9500 104.620 TC -16.9169 104.672 1 4 221
1957082S15118 1957 25 SI WA NOT_NAMED 1957-03-27 06:00:00 TS -17.0948 104.514 main 1105 1105 O________OP___ jtwc_sh SH281957 -17.1000 104.500 -1 -17.1000 104.500 TC -17.0843 104.543 1 4 210
1957082S15118 1957 25 SI WA NOT_NAMED 1957-03-27 09:00:00 TS -17.2787 104.434 main 1129 1122 P________PP___ SH281957 -17.2850 104.427 -1 -17.2850 104.427 TC -17.2662 104.447 1 4 198
1957082S15118 1957 25 SI WA NOT_NAMED 1957-03-27 11:00:00 TS -17.4167 104.404 main 1122 1116 P________PO___ SH281957 -17.4250 104.406 -1 -17.4250 104.406 TC -17.4000 104.400 1 4 189
1957082S15118 1957 25 SI WA NOT_NAMED 1957-03-27 12:00:00 TS -17.4927 104.394 main 1116 1105 O________OP___ jtwc_sh SH281957 -17.5000 104.400 -1 -17.5000 104.400 TC -17.4782 104.382 1 5 0
1957082S15118 1957 25 SI WA NOT_NAMED 1957-03-27 15:00:00 TS -17.7388 104.384 main 1105 1088 P________PP___ SH281957 -17.7425 104.400 -1 -17.7425 104.400 TC -17.7313 104.351 1 5 0
1957082S15118 1957 25 SI WA NOT_NAMED 1957-03-27 18:00:00 TS -17.9984 104.380 main 1088 1077 O________OP___ jtwc_sh SH281957 -18.0000 104.400 -1 -18.0000 104.400 TC -17.9953 104.339 1 5 184
1957082S15118 1957 25 SI WA NOT_NAMED 1957-03-27 21:00:00 TS -18.2594 104.351 main 1071 1071 P________PP___ SH281957 -18.2650 104.365 -1 -18.2650 104.365 TC -18.2483 104.323 1 5 188
1957082S15118 1957 25 SI WA NOT_NAMED 1957-03-27 23:00:00 TS -18.4187 104.317 main 1075 1070 P________PO___ SH281957 -18.4281 104.325 -1 -18.4281 104.325 TC -18.4000 104.300 7 5 193
1957082S15118 1957 25 SI WA NOT_NAMED 1957-03-28 00:00:00 TS -18.4903 104.293 main 1070 1065 O________OP___ jtwc_sh SH281957 -18.5000 104.300 -1 -18.5000 104.300 TC -18.4708 104.278 7 4 202
1957082S15118 1957 25 SI WA NOT_NAMED 1957-03-28 03:00:00 TS -18.6697 104.204 main 1070 1070 P________PP___ SH281957 -18.6725 104.208 -1 -18.6725 104.208 TC -18.6642 104.196 7 4 211
1957082S15118 1957 25 SI WA NOT_NAMED 1957-03-28 06:00:00 TS -18.8081 104.098 main 1075 1070 O________OP___ jtwc_sh SH281957 -18.8000 104.100 -1 -18.8000 104.100 TC -18.8243 104.095 7 3 217
1957082S15118 1957 25 SI WA NOT_NAMED 1957-03-28 09:00:00 TS -18.9249 103.998 main 1080 1075 P________PP___ SH281957 -18.9150 104.007 -1 -18.9150 104.007 TC -18.9447 103.980 7 3 223
1957082S15118 1957 25 SI WA NOT_NAMED 1957-03-28 11:00:00 TS -18.9833 103.926 main 1085 1085 P________PO___ SH281957 -18.9750 103.939 -1 -18.9750 103.939 TC -19.0000 103.900 1 3 231
1957082S15118 1957 25 SI WA NOT_NAMED 1957-03-28 12:00:00 TS -19.0104 103.890 main 1085 1085 O________OP___ jtwc_sh SH281957 -19.0000 103.900 -1 -19.0000 103.900 TC -19.0311 103.870 1 3 238
1957082S15118 1957 25 SI WA NOT_NAMED 1957-03-28 15:00:00 TS -19.0803 103.765 main 1090 1090 P________PP___ SH281957 -19.0725 103.758 -1 -19.0725 103.758 TC -19.0960 103.780 1 3 250
1957082S15118 1957 25 SI WA NOT_NAMED 1957-03-28 18:00:00 TS -19.1037 103.624 main 1109 1109 O________OP___ jtwc_sh SH281957 -19.1000 103.600 -1 -19.1000 103.600 TC -19.1111 103.671 1 3 270
1957082S15118 1957 25 SI WA NOT_NAMED 1957-03-28 21:00:00 TS -19.0806 103.490 main 1119 1119 P________PP___ SH281957 -19.0874 103.473 -1 -19.0874 103.473 TC -19.0669 103.526 1 3 289
1957082S15118 1957 25 SI WA NOT_NAMED 1957-03-28 23:00:00 TS -19.0260 103.378 main 1133 1133 P________PO___ SH281957 -19.0390 103.367 -1 -19.0390 103.367 TC -19.0000 103.400 7 4 298
1957082S15118 1957 25 SI WA NOT_NAMED 1957-03-29 00:00:00 TS -18.9867 103.307 main 1143 1143 O________OP___ jtwc_sh SH281957 -19.0000 103.300 -1 -19.0000 103.300 TC -18.9602 103.321 7 6 302
1957082S15118 1957 25 SI WA NOT_NAMED 1957-03-29 03:00:00 TS -18.8227 103.030 main 1181 1181 P________PP___ SH281957 -18.8375 103.022 -1 -18.8375 103.022 TC -18.7931 103.044 7 7 305
1957082S15118 1957 25 SI WA NOT_NAMED 1957-03-29 06:00:00 TS -18.5889 102.710 main 1218 1218 O________OP___ jtwc_sh SH281957 -18.6000 102.700 -1 -18.6000 102.700 TC -18.5667 102.730 7 8 311
1957082S15118 1957 25 SI WA NOT_NAMED 1957-03-29 09:00:00 TS -18.3089 102.397 main 1261 1261 P________PP___ SH281957 -18.3150 102.392 -1 -18.3150 102.392 TC -18.2966 102.407 7 8 315
1957082S15118 1957 25 SI WA NOT_NAMED 1957-03-29 11:00:00 TS -18.1035 102.196 main 1281 1275 P________PO___ SH281957 -18.1052 102.194 -1 -18.1052 102.194 TC -18.1000 102.200 1 8 318
1957082S15118 1957 25 SI WA NOT_NAMED 1957-03-29 12:00:00 TS -17.9994 102.101 main 1275 1252 O________OP___ jtwc_sh SH281957 -18.0000 102.100 -1 -18.0000 102.100 TC -17.9985 102.102 1 8 320
1957082S15118 1957 25 SI WA NOT_NAMED 1957-03-29 15:00:00 TS -17.6895 101.835 main 1256 1234 P________PP___ SH281957 -17.6950 101.840 -1 -17.6950 101.840 TC -17.6839 101.830 1 8 322
1957082S15118 1957 25 SI WA NOT_NAMED 1957-03-29 18:00:00 TS -17.3746 101.589 main 1234 1204 O________OP___ jtwc_sh SH281957 -17.4000 101.600 -1 -17.4000 101.600 TC -17.3577 101.582 1 8 325
1957082S15118 1957 25 SI WA NOT_NAMED 1957-03-29 21:00:00 NR -17.0243 101.350 main 1204 1194 __________P___ SH281957 -1 TC -17.0243 101.350 1 8 327
1957082S15118 1957 25 SI WA NOT_NAMED 1957-03-29 23:00:00 NR -16.8000 101.200 main 1194 __________O___ SH281957 -1 TC -16.8000 101.200 7 8 328

About IBTrACS Database

This database is a web-friendly format of International Best Track Archive for Climate Stewardship (IBTrACS), a global best track data archive curated by NOAA dating back to 1842.

Updated: 2021-12-01